sensor_id;sensor_type;location;lat;lon;timestamp;P1;durP1;ratioP1;P2;durP2;ratioP2
10882;SDS011;5494;51.796;10.952;2023-07-16T00:02:13;4.43;;;3.63;;
10882;SDS011;5494;51.796;10.952;2023-07-16T00:04:41;3.80;;;3.30;;
10882;SDS011;5494;51.796;10.952;2023-07-16T00:07:09;3.67;;;3.37;;
10882;SDS011;5494;51.796;10.952;2023-07-16T00:09:37;3.73;;;3.37;;
10882;SDS011;5494;51.796;10.952;2023-07-16T00:12:06;4.30;;;3.40;;
10882;SDS011;5494;51.796;10.952;2023-07-16T00:14:34;4.77;;;3.43;;
10882;SDS011;5494;51.796;10.952;2023-07-16T00:17:04;3.90;;;3.40;;
10882;SDS011;5494;51.796;10.952;2023-07-16T00:19:32;6.03;;;4.07;;
10882;SDS011;5494;51.796;10.952;2023-07-16T00:22:00;4.73;;;3.20;;
10882;SDS011;5494;51.796;10.952;2023-07-16T00:24:29;4.57;;;3.60;;
10882;SDS011;5494;51.796;10.952;2023-07-16T00:26:57;4.17;;;3.60;;
10882;SDS011;5494;51.796;10.952;2023-07-16T00:29:25;4.00;;;3.30;;
10882;SDS011;5494;51.796;10.952;2023-07-16T00:31:53;4.53;;;3.67;;
10882;SDS011;5494;51.796;10.952;2023-07-16T00:34:23;5.27;;;3.73;;
10882;SDS011;5494;51.796;10.952;2023-07-16T00:36:51;4.43;;;3.87;;
10882;SDS011;5494;51.796;10.952;2023-07-16T00:39:19;6.57;;;3.97;;
10882;SDS011;5494;51.796;10.952;2023-07-16T00:41:47;4.63;;;3.63;;
10882;SDS011;5494;51.796;10.952;2023-07-16T00:44:15;4.07;;;3.63;;
10882;SDS011;5494;51.796;10.952;2023-07-16T00:46:43;5.53;;;3.63;;
10882;SDS011;5494;51.796;10.952;2023-07-16T00:49:12;3.97;;;3.07;;
10882;SDS011;5494;51.796;10.952;2023-07-16T00:51:41;4.20;;;3.80;;
10882;SDS011;5494;51.796;10.952;2023-07-16T00:54:10;4.47;;;3.60;;
10882;SDS011;5494;51.796;10.952;2023-07-16T00:56:40;4.00;;;3.60;;
10882;SDS011;5494;51.796;10.952;2023-07-16T00:59:08;6.10;;;3.70;;
10882;SDS011;5494;51.796;10.952;2023-07-16T01:01:36;5.77;;;3.90;;
10882;SDS011;5494;51.796;10.952;2023-07-16T01:04:06;4.67;;;3.87;;
10882;SDS011;5494;51.796;10.952;2023-07-16T01:06:35;3.93;;;3.50;;
10882;SDS011;5494;51.796;10.952;2023-07-16T01:09:10;3.67;;;3.27;;
10882;SDS011;5494;51.796;10.952;2023-07-16T01:11:43;5.33;;;3.63;;
10882;SDS011;5494;51.796;10.952;2023-07-16T01:14:13;3.73;;;3.33;;
10882;SDS011;5494;51.796;10.952;2023-07-16T01:16:45;3.50;;;3.20;;
10882;SDS011;5494;51.796;10.952;2023-07-16T01:19:13;3.97;;;3.27;;
10882;SDS011;5494;51.796;10.952;2023-07-16T01:21:43;4.47;;;3.23;;
10882;SDS011;5494;51.796;10.952;2023-07-16T01:27:58;3.87;;;3.27;;
10882;SDS011;5494;51.796;10.952;2023-07-16T01:30:55;4.20;;;3.77;;
10882;SDS011;5494;51.796;10.952;2023-07-16T01:33:26;3.87;;;3.53;;
10882;SDS011;5494;51.796;10.952;2023-07-16T01:35:55;3.57;;;3.27;;
10882;SDS011;5494;51.796;10.952;2023-07-16T01:38:26;3.50;;;3.20;;
10882;SDS011;5494;51.796;10.952;2023-07-16T01:40:55;3.37;;;3.07;;
10882;SDS011;5494;51.796;10.952;2023-07-16T01:43:23;3.60;;;3.30;;
10882;SDS011;5494;51.796;10.952;2023-07-16T01:45:51;3.60;;;3.30;;
10882;SDS011;5494;51.796;10.952;2023-07-16T01:48:24;3.80;;;3.40;;
10882;SDS011;5494;51.796;10.952;2023-07-16T01:50:59;3.83;;;3.40;;
10882;SDS011;5494;51.796;10.952;2023-07-16T01:53:27;3.50;;;3.20;;
10882;SDS011;5494;51.796;10.952;2023-07-16T01:55:55;3.43;;;3.13;;
10882;SDS011;5494;51.796;10.952;2023-07-16T01:58:23;4.33;;;3.20;;
10882;SDS011;5494;51.796;10.952;2023-07-16T02:00:51;4.70;;;3.57;;
10882;SDS011;5494;51.796;10.952;2023-07-16T02:03:20;3.70;;;3.07;;
10882;SDS011;5494;51.796;10.952;2023-07-16T02:05:50;3.50;;;3.20;;
10882;SDS011;5494;51.796;10.952;2023-07-16T02:08:18;4.67;;;3.40;;
10882;SDS011;5494;51.796;10.952;2023-07-16T02:10:46;3.50;;;3.20;;
10882;SDS011;5494;51.796;10.952;2023-07-16T02:13:15;3.37;;;3.07;;
10882;SDS011;5494;51.796;10.952;2023-07-16T02:15:44;3.83;;;3.40;;
10882;SDS011;5494;51.796;10.952;2023-07-16T02:18:13;4.00;;;3.13;;
10882;SDS011;5494;51.796;10.952;2023-07-16T02:20:42;5.43;;;3.57;;
10882;SDS011;5494;51.796;10.952;2023-07-16T02:23:12;4.13;;;3.33;;
10882;SDS011;5494;51.796;10.952;2023-07-16T02:25:40;4.30;;;3.50;;
10882;SDS011;5494;51.796;10.952;2023-07-16T02:28:08;4.80;;;3.33;;
10882;SDS011;5494;51.796;10.952;2023-07-16T02:30:36;5.13;;;3.53;;
10882;SDS011;5494;51.796;10.952;2023-07-16T02:33:07;3.67;;;3.27;;
10882;SDS011;5494;51.796;10.952;2023-07-16T02:35:35;3.67;;;3.20;;
10882;SDS011;5494;51.796;10.952;2023-07-16T02:38:04;3.47;;;3.17;;
10882;SDS011;5494;51.796;10.952;2023-07-16T02:40:33;3.60;;;3.30;;
10882;SDS011;5494;51.796;10.952;2023-07-16T02:43:04;3.83;;;3.40;;
10882;SDS011;5494;51.796;10.952;2023-07-16T02:45:32;3.53;;;3.07;;
10882;SDS011;5494;51.796;10.952;2023-07-16T02:48:00;4.93;;;3.30;;
10882;SDS011;5494;51.796;10.952;2023-07-16T02:50:28;3.80;;;3.03;;
10882;SDS011;5494;51.796;10.952;2023-07-16T02:52:56;3.40;;;3.03;;
10882;SDS011;5494;51.796;10.952;2023-07-16T02:55:24;4.20;;;3.10;;
10882;SDS011;5494;51.796;10.952;2023-07-16T02:57:54;4.73;;;3.27;;
10882;SDS011;5494;51.796;10.952;2023-07-16T03:00:22;2.87;;;2.67;;
10882;SDS011;5494;51.796;10.952;2023-07-16T03:02:50;4.87;;;3.37;;
10882;SDS011;5494;51.796;10.952;2023-07-16T03:05:19;3.10;;;2.90;;
10882;SDS011;5494;51.796;10.952;2023-07-16T03:07:47;4.53;;;3.07;;
10882;SDS011;5494;51.796;10.952;2023-07-16T03:10:16;3.30;;;2.67;;
10882;SDS011;5494;51.796;10.952;2023-07-16T03:12:44;3.37;;;2.90;;
10882;SDS011;5494;51.796;10.952;2023-07-16T03:15:14;3.80;;;3.23;;
10882;SDS011;5494;51.796;10.952;2023-07-16T03:17:42;3.30;;;2.77;;
10882;SDS011;5494;51.796;10.952;2023-07-16T03:20:11;3.40;;;3.10;;
10882;SDS011;5494;51.796;10.952;2023-07-16T03:22:40;3.20;;;2.90;;
10882;SDS011;5494;51.796;10.952;2023-07-16T03:25:08;4.47;;;2.80;;
10882;SDS011;5494;51.796;10.952;2023-07-16T03:27:39;3.80;;;3.10;;
10882;SDS011;5494;51.796;10.952;2023-07-16T03:30:08;2.70;;;2.50;;
10882;SDS011;5494;51.796;10.952;2023-07-16T03:32:38;3.70;;;2.60;;
10882;SDS011;5494;51.796;10.952;2023-07-16T03:35:19;3.33;;;2.80;;
10882;SDS011;5494;51.796;10.952;2023-07-16T03:37:51;3.07;;;2.77;;
10882;SDS011;5494;51.796;10.952;2023-07-16T03:40:23;4.33;;;2.60;;
10882;SDS011;5494;51.796;10.952;2023-07-16T03:42:55;2.83;;;2.40;;
10882;SDS011;5494;51.796;10.952;2023-07-16T03:45:23;3.57;;;2.40;;
10882;SDS011;5494;51.796;10.952;2023-07-16T03:47:53;2.93;;;2.13;;
10882;SDS011;5494;51.796;10.952;2023-07-16T03:50:22;2.80;;;2.50;;
10882;SDS011;5494;51.796;10.952;2023-07-16T03:52:50;3.77;;;2.50;;
10882;SDS011;5494;51.796;10.952;2023-07-16T03:55:18;2.87;;;2.57;;
10882;SDS011;5494;51.796;10.952;2023-07-16T03:57:46;4.03;;;2.33;;
10882;SDS011;5494;51.796;10.952;2023-07-16T04:00:14;2.80;;;2.50;;
10882;SDS011;5494;51.796;10.952;2023-07-16T04:02:48;3.50;;;2.60;;
10882;SDS011;5494;51.796;10.952;2023-07-16T04:05:18;3.80;;;2.57;;
10882;SDS011;5494;51.796;10.952;2023-07-16T04:07:50;2.40;;;2.20;;
10882;SDS011;5494;51.796;10.952;2023-07-16T04:10:18;5.60;;;2.40;;
10882;SDS011;5494;51.796;10.952;2023-07-16T04:12:47;2.87;;;2.50;;
10882;SDS011;5494;51.796;10.952;2023-07-16T04:15:15;3.83;;;2.60;;
10882;SDS011;5494;51.796;10.952;2023-07-16T04:17:43;3.90;;;2.60;;
10882;SDS011;5494;51.796;10.952;2023-07-16T04:20:11;3.33;;;2.50;;
10882;SDS011;5494;51.796;10.952;2023-07-16T04:22:40;2.30;;;2.10;;
10882;SDS011;5494;51.796;10.952;2023-07-16T04:25:09;2.73;;;2.40;;
10882;SDS011;5494;51.796;10.952;2023-07-16T04:27:37;2.93;;;2.40;;
10882;SDS011;5494;51.796;10.952;2023-07-16T04:30:07;3.10;;;2.40;;
10882;SDS011;5494;51.796;10.952;2023-07-16T04:32:36;3.23;;;2.20;;
10882;SDS011;5494;51.796;10.952;2023-07-16T04:35:04;2.30;;;2.10;;
10882;SDS011;5494;51.796;10.952;2023-07-16T04:37:33;3.27;;;2.00;;
10882;SDS011;5494;51.796;10.952;2023-07-16T04:40:03;2.90;;;2.00;;
10882;SDS011;5494;51.796;10.952;2023-07-16T04:42:33;3.40;;;2.30;;
10882;SDS011;5494;51.796;10.952;2023-07-16T04:45:01;2.90;;;2.00;;
10882;SDS011;5494;51.796;10.952;2023-07-16T04:47:29;4.00;;;2.30;;
10882;SDS011;5494;51.796;10.952;2023-07-16T04:49:58;2.83;;;2.10;;
10882;SDS011;5494;51.796;10.952;2023-07-16T04:52:26;2.37;;;2.00;;
10882;SDS011;5494;51.796;10.952;2023-07-16T04:54:54;2.60;;;2.00;;
10882;SDS011;5494;51.796;10.952;2023-07-16T04:57:24;2.10;;;1.80;;
10882;SDS011;5494;51.796;10.952;2023-07-16T04:59:53;2.10;;;1.80;;
10882;SDS011;5494;51.796;10.952;2023-07-16T05:02:21;2.83;;;1.73;;
10882;SDS011;5494;51.796;10.952;2023-07-16T05:04:49;3.40;;;2.00;;
10882;SDS011;5494;51.796;10.952;2023-07-16T05:07:17;2.50;;;1.70;;
10882;SDS011;5494;51.796;10.952;2023-07-16T05:09:45;2.80;;;1.70;;
10882;SDS011;5494;51.796;10.952;2023-07-16T05:12:13;2.33;;;1.73;;
10882;SDS011;5494;51.796;10.952;2023-07-16T05:14:46;2.63;;;1.80;;
10882;SDS011;5494;51.796;10.952;2023-07-16T05:17:15;3.27;;;1.70;;
10882;SDS011;5494;51.796;10.952;2023-07-16T05:19:44;4.70;;;1.57;;
10882;SDS011;5494;51.796;10.952;2023-07-16T05:22:12;3.03;;;1.80;;
10882;SDS011;5494;51.796;10.952;2023-07-16T05:24:40;2.10;;;1.60;;
10882;SDS011;5494;51.796;10.952;2023-07-16T05:27:08;3.03;;;1.70;;
10882;SDS011;5494;51.796;10.952;2023-07-16T05:29:36;2.60;;;1.40;;
10882;SDS011;5494;51.796;10.952;2023-07-16T05:32:06;1.63;;;1.20;;
10882;SDS011;5494;51.796;10.952;2023-07-16T05:34:35;2.93;;;1.90;;
10882;SDS011;5494;51.796;10.952;2023-07-16T05:37:04;3.27;;;1.70;;
10882;SDS011;5494;51.796;10.952;2023-07-16T05:39:32;3.30;;;1.70;;
10882;SDS011;5494;51.796;10.952;2023-07-16T05:42:00;3.20;;;1.67;;
10882;SDS011;5494;51.796;10.952;2023-07-16T05:44:29;2.57;;;1.77;;
10882;SDS011;5494;51.796;10.952;2023-07-16T05:46:57;2.40;;;1.53;;
10882;SDS011;5494;51.796;10.952;2023-07-16T05:49:27;2.03;;;1.40;;
10882;SDS011;5494;51.796;10.952;2023-07-16T05:51:55;3.00;;;1.57;;
10882;SDS011;5494;51.796;10.952;2023-07-16T05:54:23;3.43;;;1.47;;
10882;SDS011;5494;51.796;10.952;2023-07-16T05:56:51;3.47;;;1.60;;
10882;SDS011;5494;51.796;10.952;2023-07-16T05:59:19;2.83;;;1.50;;
10882;SDS011;5494;51.796;10.952;2023-07-16T06:01:47;2.77;;;1.40;;
10882;SDS011;5494;51.796;10.952;2023-07-16T06:04:16;2.40;;;1.53;;
10882;SDS011;5494;51.796;10.952;2023-07-16T06:06:45;2.73;;;1.60;;
10882;SDS011;5494;51.796;10.952;2023-07-16T06:09:17;3.47;;;1.83;;
10882;SDS011;5494;51.796;10.952;2023-07-16T06:11:45;2.80;;;1.80;;
10882;SDS011;5494;51.796;10.952;2023-07-16T06:14:14;4.57;;;1.70;;
10882;SDS011;5494;51.796;10.952;2023-07-16T06:16:43;2.63;;;1.57;;
10882;SDS011;5494;51.796;10.952;2023-07-16T06:19:11;2.60;;;1.57;;
10882;SDS011;5494;51.796;10.952;2023-07-16T06:21:39;3.10;;;1.53;;
10882;SDS011;5494;51.796;10.952;2023-07-16T06:24:09;2.87;;;1.73;;
10882;SDS011;5494;51.796;10.952;2023-07-16T06:26:41;3.83;;;1.40;;
10882;SDS011;5494;51.796;10.952;2023-07-16T06:29:09;2.83;;;1.70;;
10882;SDS011;5494;51.796;10.952;2023-07-16T06:31:37;2.97;;;1.50;;
10882;SDS011;5494;51.796;10.952;2023-07-16T06:34:06;4.03;;;1.57;;
10882;SDS011;5494;51.796;10.952;2023-07-16T06:36:34;2.67;;;1.47;;
10882;SDS011;5494;51.796;10.952;2023-07-16T06:39:02;2.40;;;1.80;;
10882;SDS011;5494;51.796;10.952;2023-07-16T06:41:32;2.90;;;1.67;;
10882;SDS011;5494;51.796;10.952;2023-07-16T06:44:01;3.97;;;1.83;;
10882;SDS011;5494;51.796;10.952;2023-07-16T06:46:29;3.50;;;1.40;;
10882;SDS011;5494;51.796;10.952;2023-07-16T06:48:57;3.70;;;1.53;;
10882;SDS011;5494;51.796;10.952;2023-07-16T06:51:25;3.10;;;1.60;;
10882;SDS011;5494;51.796;10.952;2023-07-16T06:53:54;3.37;;;1.77;;
10882;SDS011;5494;51.796;10.952;2023-07-16T06:56:23;3.37;;;1.60;;
10882;SDS011;5494;51.796;10.952;2023-07-16T06:58:52;2.67;;;1.40;;
10882;SDS011;5494;51.796;10.952;2023-07-16T07:01:20;2.60;;;1.23;;
10882;SDS011;5494;51.796;10.952;2023-07-16T07:03:48;3.47;;;1.40;;
10882;SDS011;5494;51.796;10.952;2023-07-16T07:06:16;3.17;;;1.57;;
10882;SDS011;5494;51.796;10.952;2023-07-16T07:08:45;2.70;;;1.63;;
10882;SDS011;5494;51.796;10.952;2023-07-16T07:11:13;3.23;;;1.60;;
10882;SDS011;5494;51.796;10.952;2023-07-16T07:13:41;3.00;;;1.57;;
10882;SDS011;5494;51.796;10.952;2023-07-16T07:16:10;3.67;;;1.60;;
10882;SDS011;5494;51.796;10.952;2023-07-16T07:18:39;3.27;;;1.63;;
10882;SDS011;5494;51.796;10.952;2023-07-16T07:21:07;3.93;;;1.87;;
10882;SDS011;5494;51.796;10.952;2023-07-16T07:23:35;3.10;;;1.60;;
10882;SDS011;5494;51.796;10.952;2023-07-16T07:26:03;3.37;;;1.40;;
10882;SDS011;5494;51.796;10.952;2023-07-16T07:28:31;2.33;;;1.30;;
10882;SDS011;5494;51.796;10.952;2023-07-16T07:31:00;2.50;;;1.40;;
10882;SDS011;5494;51.796;10.952;2023-07-16T07:33:30;1.90;;;1.30;;
10882;SDS011;5494;51.796;10.952;2023-07-16T07:35:59;4.53;;;1.30;;
10882;SDS011;5494;51.796;10.952;2023-07-16T07:38:27;3.57;;;1.40;;
10882;SDS011;5494;51.796;10.952;2023-07-16T07:40:55;2.50;;;1.27;;
10882;SDS011;5494;51.796;10.952;2023-07-16T07:43:23;3.60;;;1.50;;
10882;SDS011;5494;51.796;10.952;2023-07-16T07:45:52;2.80;;;1.40;;
10882;SDS011;5494;51.796;10.952;2023-07-16T07:48:20;2.57;;;1.20;;
10882;SDS011;5494;51.796;10.952;2023-07-16T07:50:49;3.50;;;1.50;;
10882;SDS011;5494;51.796;10.952;2023-07-16T07:53:19;3.67;;;1.40;;
10882;SDS011;5494;51.796;10.952;2023-07-16T07:55:47;3.97;;;1.60;;
10882;SDS011;5494;51.796;10.952;2023-07-16T07:58:15;1.77;;;1.40;;
10882;SDS011;5494;51.796;10.952;2023-07-16T08:00:43;3.23;;;1.63;;
10882;SDS011;5494;51.796;10.952;2023-07-16T08:03:11;3.50;;;1.30;;
10882;SDS011;5494;51.796;10.952;2023-07-16T08:05:40;3.67;;;1.60;;
10882;SDS011;5494;51.796;10.952;2023-07-16T08:08:09;2.03;;;1.43;;
10882;SDS011;5494;51.796;10.952;2023-07-16T08:10:37;4.07;;;1.37;;
10882;SDS011;5494;51.796;10.952;2023-07-16T08:13:07;3.20;;;1.50;;
10882;SDS011;5494;51.796;10.952;2023-07-16T08:15:35;2.30;;;1.50;;
10882;SDS011;5494;51.796;10.952;2023-07-16T08:18:03;4.90;;;1.57;;
10882;SDS011;5494;51.796;10.952;2023-07-16T08:20:31;1.80;;;1.20;;
10882;SDS011;5494;51.796;10.952;2023-07-16T08:22:59;5.13;;;1.50;;
10882;SDS011;5494;51.796;10.952;2023-07-16T08:25:29;2.30;;;1.60;;
10882;SDS011;5494;51.796;10.952;2023-07-16T08:27:57;3.17;;;1.80;;
10882;SDS011;5494;51.796;10.952;2023-07-16T08:30:25;3.53;;;1.60;;
10882;SDS011;5494;51.796;10.952;2023-07-16T08:32:53;3.83;;;1.60;;
10882;SDS011;5494;51.796;10.952;2023-07-16T08:35:21;3.97;;;1.90;;
10882;SDS011;5494;51.796;10.952;2023-07-16T08:37:49;2.67;;;1.40;;
10882;SDS011;5494;51.796;10.952;2023-07-16T08:40:18;2.93;;;1.67;;
10882;SDS011;5494;51.796;10.952;2023-07-16T08:42:48;3.87;;;1.80;;
10882;SDS011;5494;51.796;10.952;2023-07-16T08:45:17;2.60;;;1.63;;
10882;SDS011;5494;51.796;10.952;2023-07-16T08:47:52;3.40;;;1.53;;
10882;SDS011;5494;51.796;10.952;2023-07-16T08:50:21;4.60;;;1.60;;
10882;SDS011;5494;51.796;10.952;2023-07-16T08:52:54;3.87;;;1.50;;
10882;SDS011;5494;51.796;10.952;2023-07-16T08:55:24;2.30;;;1.60;;
10882;SDS011;5494;51.796;10.952;2023-07-16T08:57:54;2.60;;;1.77;;
10882;SDS011;5494;51.796;10.952;2023-07-16T09:00:23;4.80;;;2.00;;
10882;SDS011;5494;51.796;10.952;2023-07-16T09:02:53;1.80;;;1.33;;
10882;SDS011;5494;51.796;10.952;2023-07-16T09:05:22;4.30;;;1.57;;
10882;SDS011;5494;51.796;10.952;2023-07-16T09:08:04;2.97;;;1.80;;
10882;SDS011;5494;51.796;10.952;2023-07-16T09:10:33;3.87;;;1.80;;
10882;SDS011;5494;51.796;10.952;2023-07-16T09:13:03;2.83;;;1.40;;
10882;SDS011;5494;51.796;10.952;2023-07-16T09:15:31;3.97;;;1.50;;
10882;SDS011;5494;51.796;10.952;2023-07-16T09:18:00;2.70;;;1.70;;
10882;SDS011;5494;51.796;10.952;2023-07-16T09:20:29;3.20;;;1.37;;
10882;SDS011;5494;51.796;10.952;2023-07-16T09:22:59;3.40;;;1.50;;
10882;SDS011;5494;51.796;10.952;2023-07-16T09:25:27;2.63;;;1.50;;
10882;SDS011;5494;51.796;10.952;2023-07-16T09:27:57;2.63;;;1.57;;
10882;SDS011;5494;51.796;10.952;2023-07-16T09:30:31;3.27;;;1.80;;
10882;SDS011;5494;51.796;10.952;2023-07-16T09:33:04;3.53;;;1.53;;
10882;SDS011;5494;51.796;10.952;2023-07-16T09:35:38;2.83;;;1.80;;
10882;SDS011;5494;51.796;10.952;2023-07-16T09:38:07;2.77;;;1.53;;
10882;SDS011;5494;51.796;10.952;2023-07-16T09:40:39;2.87;;;1.57;;
10882;SDS011;5494;51.796;10.952;2023-07-16T09:43:10;5.20;;;1.90;;
10882;SDS011;5494;51.796;10.952;2023-07-16T09:48:09;2.50;;;1.70;;
10882;SDS011;5494;51.796;10.952;2023-07-16T09:50:38;3.30;;;1.60;;
10882;SDS011;5494;51.796;10.952;2023-07-16T09:53:12;3.17;;;1.80;;
10882;SDS011;5494;51.796;10.952;2023-07-16T09:55:43;3.43;;;1.60;;
10882;SDS011;5494;51.796;10.952;2023-07-16T09:58:13;5.77;;;2.10;;
10882;SDS011;5494;51.796;10.952;2023-07-16T10:00:46;4.13;;;1.87;;
10882;SDS011;5494;51.796;10.952;2023-07-16T10:03:16;5.80;;;1.87;;
10882;SDS011;5494;51.796;10.952;2023-07-16T10:05:44;5.03;;;2.33;;
10882;SDS011;5494;51.796;10.952;2023-07-16T10:08:15;2.17;;;1.60;;
10882;SDS011;5494;51.796;10.952;2023-07-16T10:10:46;2.27;;;1.63;;
10882;SDS011;5494;51.796;10.952;2023-07-16T10:13:21;3.40;;;2.10;;
10882;SDS011;5494;51.796;10.952;2023-07-16T10:15:51;2.37;;;1.80;;
10882;SDS011;5494;51.796;10.952;2023-07-16T10:18:28;4.07;;;1.73;;
10882;SDS011;5494;51.796;10.952;2023-07-16T10:21:02;3.53;;;1.73;;
10882;SDS011;5494;51.796;10.952;2023-07-16T10:23:37;2.77;;;1.73;;
10882;SDS011;5494;51.796;10.952;2023-07-16T10:26:07;4.83;;;1.80;;
10882;SDS011;5494;51.796;10.952;2023-07-16T10:28:45;2.57;;;1.70;;
10882;SDS011;5494;51.796;10.952;2023-07-16T10:31:17;2.93;;;1.40;;
10882;SDS011;5494;51.796;10.952;2023-07-16T10:33:58;1.73;;;1.60;;
10882;SDS011;5494;51.796;10.952;2023-07-16T10:36:27;2.40;;;1.60;;
10882;SDS011;5494;51.796;10.952;2023-07-16T10:39:01;2.80;;;1.93;;
10882;SDS011;5494;51.796;10.952;2023-07-16T10:41:31;2.63;;;1.63;;
10882;SDS011;5494;51.796;10.952;2023-07-16T10:44:02;1.57;;;1.47;;
10882;SDS011;5494;51.796;10.952;2023-07-16T10:46:31;4.10;;;1.70;;
10882;SDS011;5494;51.796;10.952;2023-07-16T10:49:00;2.87;;;1.77;;
10882;SDS011;5494;51.796;10.952;2023-07-16T10:51:28;1.70;;;1.60;;
10882;SDS011;5494;51.796;10.952;2023-07-16T10:53:57;3.00;;;1.93;;
10882;SDS011;5494;51.796;10.952;2023-07-16T10:56:25;3.63;;;1.93;;
10882;SDS011;5494;51.796;10.952;2023-07-16T10:58:53;2.77;;;1.77;;
10882;SDS011;5494;51.796;10.952;2023-07-16T11:01:23;3.77;;;1.93;;
10882;SDS011;5494;51.796;10.952;2023-07-16T11:03:59;2.83;;;1.97;;
10882;SDS011;5494;51.796;10.952;2023-07-16T11:06:28;4.77;;;2.10;;
10882;SDS011;5494;51.796;10.952;2023-07-16T11:09:05;3.43;;;1.90;;
10882;SDS011;5494;51.796;10.952;2023-07-16T11:11:34;1.87;;;1.63;;
10882;SDS011;5494;51.796;10.952;2023-07-16T11:14:03;2.40;;;1.60;;
10882;SDS011;5494;51.796;10.952;2023-07-16T11:16:34;2.27;;;1.77;;
10882;SDS011;5494;51.796;10.952;2023-07-16T11:19:04;3.60;;;1.90;;
10882;SDS011;5494;51.796;10.952;2023-07-16T11:21:33;3.63;;;1.87;;
10882;SDS011;5494;51.796;10.952;2023-07-16T11:24:08;2.20;;;1.80;;
10882;SDS011;5494;51.796;10.952;2023-07-16T11:26:38;4.07;;;1.83;;
10882;SDS011;5494;51.796;10.952;2023-07-16T11:29:13;1.60;;;1.50;;
10882;SDS011;5494;51.796;10.952;2023-07-16T11:31:43;3.13;;;1.97;;
10882;SDS011;5494;51.796;10.952;2023-07-16T11:34:12;2.77;;;1.80;;
10882;SDS011;5494;51.796;10.952;2023-07-16T11:36:40;3.70;;;1.70;;
10882;SDS011;5494;51.796;10.952;2023-07-16T11:39:10;4.33;;;1.80;;
10882;SDS011;5494;51.796;10.952;2023-07-16T11:41:39;2.37;;;2.00;;
10882;SDS011;5494;51.796;10.952;2023-07-16T11:44:14;2.43;;;1.90;;
10882;SDS011;5494;51.796;10.952;2023-07-16T11:46:46;4.03;;;2.03;;
10882;SDS011;5494;51.796;10.952;2023-07-16T11:49:14;2.60;;;1.90;;
10882;SDS011;5494;51.796;10.952;2023-07-16T11:51:42;6.33;;;1.90;;
10882;SDS011;5494;51.796;10.952;2023-07-16T11:54:10;3.40;;;1.70;;
10882;SDS011;5494;51.796;10.952;2023-07-16T11:56:38;3.37;;;1.93;;
10882;SDS011;5494;51.796;10.952;2023-07-16T11:59:07;2.57;;;2.03;;
10882;SDS011;5494;51.796;10.952;2023-07-16T12:01:38;2.40;;;1.70;;
10882;SDS011;5494;51.796;10.952;2023-07-16T12:04:08;3.27;;;2.17;;
10882;SDS011;5494;51.796;10.952;2023-07-16T12:06:37;2.67;;;1.90;;
10882;SDS011;5494;51.796;10.952;2023-07-16T12:09:05;2.83;;;1.93;;
10882;SDS011;5494;51.796;10.952;2023-07-16T12:11:33;3.57;;;2.60;;
10882;SDS011;5494;51.796;10.952;2023-07-16T12:14:01;3.67;;;2.30;;
10882;SDS011;5494;51.796;10.952;2023-07-16T12:16:29;2.70;;;2.10;;
10882;SDS011;5494;51.796;10.952;2023-07-16T12:19:01;2.60;;;2.27;;
10882;SDS011;5494;51.796;10.952;2023-07-16T12:21:31;3.03;;;2.07;;
10882;SDS011;5494;51.796;10.952;2023-07-16T12:23:59;3.63;;;1.90;;
10882;SDS011;5494;51.796;10.952;2023-07-16T12:26:28;2.50;;;2.00;;
10882;SDS011;5494;51.796;10.952;2023-07-16T12:28:56;3.27;;;1.80;;
10882;SDS011;5494;51.796;10.952;2023-07-16T12:31:24;3.13;;;2.00;;
10882;SDS011;5494;51.796;10.952;2023-07-16T12:33:52;2.90;;;2.10;;
10882;SDS011;5494;51.796;10.952;2023-07-16T12:36:20;3.70;;;2.00;;
10882;SDS011;5494;51.796;10.952;2023-07-16T12:38:50;3.53;;;2.03;;
10882;SDS011;5494;51.796;10.952;2023-07-16T12:41:18;3.17;;;2.17;;
10882;SDS011;5494;51.796;10.952;2023-07-16T12:43:46;6.37;;;2.13;;
10882;SDS011;5494;51.796;10.952;2023-07-16T12:46:15;3.70;;;2.33;;
10882;SDS011;5494;51.796;10.952;2023-07-16T12:48:43;4.57;;;2.20;;
10882;SDS011;5494;51.796;10.952;2023-07-16T12:51:11;3.57;;;2.10;;
10882;SDS011;5494;51.796;10.952;2023-07-16T12:53:39;9.00;;;2.67;;
10882;SDS011;5494;51.796;10.952;2023-07-16T12:56:11;3.03;;;2.40;;
10882;SDS011;5494;51.796;10.952;2023-07-16T12:58:39;3.67;;;2.17;;
10882;SDS011;5494;51.796;10.952;2023-07-16T13:01:07;3.47;;;2.20;;
10882;SDS011;5494;51.796;10.952;2023-07-16T13:03:36;4.63;;;2.23;;
10882;SDS011;5494;51.796;10.952;2023-07-16T13:06:04;3.27;;;2.10;;
10882;SDS011;5494;51.796;10.952;2023-07-16T13:08:32;4.80;;;2.37;;
10882;SDS011;5494;51.796;10.952;2023-07-16T13:11:01;4.70;;;2.43;;
10882;SDS011;5494;51.796;10.952;2023-07-16T13:13:31;2.60;;;1.90;;
10882;SDS011;5494;51.796;10.952;2023-07-16T13:15:59;3.53;;;2.30;;
10882;SDS011;5494;51.796;10.952;2023-07-16T13:18:27;3.13;;;2.40;;
10882;SDS011;5494;51.796;10.952;2023-07-16T13:20:55;2.30;;;2.10;;
10882;SDS011;5494;51.796;10.952;2023-07-16T13:23:23;5.97;;;2.73;;
10882;SDS011;5494;51.796;10.952;2023-07-16T13:25:51;4.87;;;2.20;;
10882;SDS011;5494;51.796;10.952;2023-07-16T13:28:20;4.53;;;2.70;;
10882;SDS011;5494;51.796;10.952;2023-07-16T13:30:51;4.03;;;2.53;;
10882;SDS011;5494;51.796;10.952;2023-07-16T13:33:22;3.33;;;2.20;;
10882;SDS011;5494;51.796;10.952;2023-07-16T13:35:50;4.30;;;2.57;;
10882;SDS011;5494;51.796;10.952;2023-07-16T13:38:18;3.90;;;2.40;;
10882;SDS011;5494;51.796;10.952;2023-07-16T13:40:46;4.60;;;2.63;;
10882;SDS011;5494;51.796;10.952;2023-07-16T13:43:14;4.00;;;2.37;;
10882;SDS011;5494;51.796;10.952;2023-07-16T13:45:42;4.37;;;2.53;;
10882;SDS011;5494;51.796;10.952;2023-07-16T13:48:11;4.87;;;2.50;;
10882;SDS011;5494;51.796;10.952;2023-07-16T13:50:40;2.90;;;2.60;;
10882;SDS011;5494;51.796;10.952;2023-07-16T13:53:08;3.33;;;2.47;;
10882;SDS011;5494;51.796;10.952;2023-07-16T13:55:39;2.90;;;2.43;;
10882;SDS011;5494;51.796;10.952;2023-07-16T13:58:07;3.17;;;2.27;;
10882;SDS011;5494;51.796;10.952;2023-07-16T14:00:35;4.13;;;2.60;;
10882;SDS011;5494;51.796;10.952;2023-07-16T14:03:03;3.47;;;2.60;;
10882;SDS011;5494;51.796;10.952;2023-07-16T14:05:34;2.93;;;2.47;;
10882;SDS011;5494;51.796;10.952;2023-07-16T14:08:05;3.47;;;2.43;;
10882;SDS011;5494;51.796;10.952;2023-07-16T14:10:33;4.40;;;2.50;;
10882;SDS011;5494;51.796;10.952;2023-07-16T14:13:01;3.00;;;2.60;;
10882;SDS011;5494;51.796;10.952;2023-07-16T14:15:30;4.47;;;2.60;;
10882;SDS011;5494;51.796;10.952;2023-07-16T14:17:58;3.20;;;2.30;;
10882;SDS011;5494;51.796;10.952;2023-07-16T14:20:27;3.90;;;2.60;;
10882;SDS011;5494;51.796;10.952;2023-07-16T14:22:56;4.87;;;2.83;;
10882;SDS011;5494;51.796;10.952;2023-07-16T14:25:24;3.33;;;2.50;;
10882;SDS011;5494;51.796;10.952;2023-07-16T14:27:52;3.57;;;2.63;;
10882;SDS011;5494;51.796;10.952;2023-07-16T14:30:20;4.93;;;2.93;;
10882;SDS011;5494;51.796;10.952;2023-07-16T14:32:48;5.57;;;2.70;;
10882;SDS011;5494;51.796;10.952;2023-07-16T14:35:17;3.03;;;2.40;;
10882;SDS011;5494;51.796;10.952;2023-07-16T14:38:02;3.50;;;2.27;;
10882;SDS011;5494;51.796;10.952;2023-07-16T14:40:30;4.10;;;2.53;;
10882;SDS011;5494;51.796;10.952;2023-07-16T14:42:59;2.50;;;2.17;;
10882;SDS011;5494;51.796;10.952;2023-07-16T14:45:27;4.37;;;2.50;;
10882;SDS011;5494;51.796;10.952;2023-07-16T14:47:55;3.53;;;2.77;;
10882;SDS011;5494;51.796;10.952;2023-07-16T14:50:23;4.33;;;2.50;;
10882;SDS011;5494;51.796;10.952;2023-07-16T14:52:53;5.00;;;3.10;;
10882;SDS011;5494;51.796;10.952;2023-07-16T14:55:22;2.43;;;2.23;;
10882;SDS011;5494;51.796;10.952;2023-07-16T14:57:51;2.67;;;2.47;;
10882;SDS011;5494;51.796;10.952;2023-07-16T15:00:19;4.27;;;2.67;;
10882;SDS011;5494;51.796;10.952;2023-07-16T15:02:47;4.00;;;2.50;;
10882;SDS011;5494;51.796;10.952;2023-07-16T15:05:16;3.03;;;2.40;;
10882;SDS011;5494;51.796;10.952;2023-07-16T15:07:45;3.13;;;2.40;;